sensor_id;sensor_type;location;lat;lon;timestamp;P1;durP1;ratioP1;P2;durP2;ratioP2
19347;SDS011;9810;52.480;9.806;2023-07-24T00:01:31;2.58;;;1.10;;
19347;SDS011;9810;52.480;9.806;2023-07-24T00:03:58;1.40;;;1.30;;
19347;SDS011;9810;52.480;9.806;2023-07-24T00:06:27;1.60;;;1.30;;
19347;SDS011;9810;52.480;9.806;2023-07-24T00:08:54;1.30;;;1.20;;
19347;SDS011;9810;52.480;9.806;2023-07-24T00:11:22;1.60;;;1.20;;
19347;SDS011;9810;52.480;9.806;2023-07-24T00:13:49;1.20;;;1.00;;
19347;SDS011;9810;52.480;9.806;2023-07-24T00:16:16;2.60;;;1.40;;
19347;SDS011;9810;52.480;9.806;2023-07-24T00:18:43;4.23;;;1.23;;
19347;SDS011;9810;52.480;9.806;2023-07-24T00:21:10;1.30;;;1.20;;
19347;SDS011;9810;52.480;9.806;2023-07-24T00:23:40;2.03;;;1.70;;
19347;SDS011;9810;52.480;9.806;2023-07-24T00:26:07;1.77;;;1.57;;
19347;SDS011;9810;52.480;9.806;2023-07-24T00:28:34;1.23;;;1.17;;
19347;SDS011;9810;52.480;9.806;2023-07-24T00:31:01;1.30;;;1.20;;
19347;SDS011;9810;52.480;9.806;2023-07-24T00:33:29;1.40;;;1.30;;
19347;SDS011;9810;52.480;9.806;2023-07-24T00:35:56;2.30;;;1.33;;
19347;SDS011;9810;52.480;9.806;2023-07-24T00:38:24;1.43;;;1.30;;
19347;SDS011;9810;52.480;9.806;2023-07-24T00:40:53;1.10;;;1.00;;
19347;SDS011;9810;52.480;9.806;2023-07-24T00:43:20;2.00;;;1.37;;
19347;SDS011;9810;52.480;9.806;2023-07-24T00:45:47;1.67;;;1.57;;
19347;SDS011;9810;52.480;9.806;2023-07-24T00:48:15;2.07;;;1.60;;
19347;SDS011;9810;52.480;9.806;2023-07-24T00:50:42;3.83;;;1.37;;
19347;SDS011;9810;52.480;9.806;2023-07-24T00:53:10;2.07;;;1.87;;
19347;SDS011;9810;52.480;9.806;2023-07-24T00:55:39;2.87;;;1.63;;
19347;SDS011;9810;52.480;9.806;2023-07-24T00:58:08;5.30;;;1.90;;
19347;SDS011;9810;52.480;9.806;2023-07-24T01:00:38;2.20;;;2.00;;
19347;SDS011;9810;52.480;9.806;2023-07-24T01:03:06;2.77;;;2.10;;
19347;SDS011;9810;52.480;9.806;2023-07-24T01:05:34;2.10;;;1.90;;
19347;SDS011;9810;52.480;9.806;2023-07-24T01:08:01;2.20;;;2.00;;
19347;SDS011;9810;52.480;9.806;2023-07-24T01:10:29;2.83;;;2.07;;
19347;SDS011;9810;52.480;9.806;2023-07-24T01:12:58;3.47;;;2.33;;
19347;SDS011;9810;52.480;9.806;2023-07-24T01:15:30;2.10;;;1.90;;
19347;SDS011;9810;52.480;9.806;2023-07-24T01:18:00;2.27;;;1.80;;
19347;SDS011;9810;52.480;9.806;2023-07-24T01:20:32;1.83;;;1.73;;
19347;SDS011;9810;52.480;9.806;2023-07-24T01:23:11;2.57;;;2.37;;
19347;SDS011;9810;52.480;9.806;2023-07-24T01:25:52;3.33;;;2.63;;
19347;SDS011;9810;52.480;9.806;2023-07-24T01:28:20;2.03;;;1.93;;
19347;SDS011;9810;52.480;9.806;2023-07-24T01:30:48;4.23;;;2.40;;
19347;SDS011;9810;52.480;9.806;2023-07-24T01:33:16;4.07;;;2.43;;
19347;SDS011;9810;52.480;9.806;2023-07-24T01:35:44;2.33;;;2.10;;
19347;SDS011;9810;52.480;9.806;2023-07-24T01:38:11;2.60;;;2.40;;
19347;SDS011;9810;52.480;9.806;2023-07-24T01:40:40;4.23;;;3.00;;
19347;SDS011;9810;52.480;9.806;2023-07-24T01:43:10;2.83;;;2.63;;
19347;SDS011;9810;52.480;9.806;2023-07-24T01:45:37;22.67;;;3.40;;
19347;SDS011;9810;52.480;9.806;2023-07-24T01:48:05;3.43;;;2.63;;
19347;SDS011;9810;52.480;9.806;2023-07-24T01:50:32;4.13;;;2.90;;
19347;SDS011;9810;52.480;9.806;2023-07-24T01:52:59;3.00;;;2.57;;
19347;SDS011;9810;52.480;9.806;2023-07-24T01:55:27;3.30;;;2.87;;
19347;SDS011;9810;52.480;9.806;2023-07-24T01:57:54;3.70;;;2.93;;
19347;SDS011;9810;52.480;9.806;2023-07-24T02:00:23;3.57;;;3.03;;
19347;SDS011;9810;52.480;9.806;2023-07-24T02:02:50;8.33;;;3.23;;
19347;SDS011;9810;52.480;9.806;2023-07-24T02:05:17;6.30;;;2.83;;
19347;SDS011;9810;52.480;9.806;2023-07-24T02:07:45;3.33;;;3.03;;
19347;SDS011;9810;52.480;9.806;2023-07-24T02:10:12;5.57;;;3.87;;
19347;SDS011;9810;52.480;9.806;2023-07-24T02:12:39;3.83;;;3.20;;
19347;SDS011;9810;52.480;9.806;2023-07-24T02:15:07;4.30;;;3.30;;
19347;SDS011;9810;52.480;9.806;2023-07-24T02:17:36;3.27;;;3.00;;
19347;SDS011;9810;52.480;9.806;2023-07-24T02:20:04;3.47;;;3.27;;
19347;SDS011;9810;52.480;9.806;2023-07-24T02:22:32;5.20;;;3.67;;
19347;SDS011;9810;52.480;9.806;2023-07-24T02:25:00;4.03;;;3.53;;
19347;SDS011;9810;52.480;9.806;2023-07-24T02:27:28;5.37;;;3.67;;
19347;SDS011;9810;52.480;9.806;2023-07-24T02:29:59;3.90;;;3.50;;
19347;SDS011;9810;52.480;9.806;2023-07-24T02:32:27;4.60;;;4.00;;
19347;SDS011;9810;52.480;9.806;2023-07-24T02:34:56;4.73;;;4.20;;
19347;SDS011;9810;52.480;9.806;2023-07-24T02:37:23;8.37;;;4.00;;
19347;SDS011;9810;52.480;9.806;2023-07-24T02:39:51;6.47;;;3.73;;
19347;SDS011;9810;52.480;9.806;2023-07-24T02:42:18;5.97;;;3.50;;
19347;SDS011;9810;52.480;9.806;2023-07-24T02:44:46;5.27;;;3.80;;
19347;SDS011;9810;52.480;9.806;2023-07-24T02:47:13;4.77;;;4.23;;
19347;SDS011;9810;52.480;9.806;2023-07-24T02:49:40;5.20;;;4.70;;
19347;SDS011;9810;52.480;9.806;2023-07-24T02:52:09;5.23;;;4.73;;
19347;SDS011;9810;52.480;9.806;2023-07-24T02:54:36;5.83;;;4.20;;
19347;SDS011;9810;52.480;9.806;2023-07-24T02:57:04;4.80;;;3.50;;
19347;SDS011;9810;52.480;9.806;2023-07-24T02:59:31;6.93;;;4.40;;
19347;SDS011;9810;52.480;9.806;2023-07-24T03:02:00;8.63;;;4.37;;
19347;SDS011;9810;52.480;9.806;2023-07-24T03:04:27;8.03;;;4.67;;
19347;SDS011;9810;52.480;9.806;2023-07-24T03:06:54;7.73;;;4.07;;
19347;SDS011;9810;52.480;9.806;2023-07-24T03:09:23;7.30;;;4.53;;
19347;SDS011;9810;52.480;9.806;2023-07-24T03:11:51;4.97;;;4.23;;
19347;SDS011;9810;52.480;9.806;2023-07-24T03:14:18;8.03;;;4.70;;
19347;SDS011;9810;52.480;9.806;2023-07-24T03:16:45;4.90;;;4.47;;
19347;SDS011;9810;52.480;9.806;2023-07-24T03:19:12;4.73;;;4.27;;
19347;SDS011;9810;52.480;9.806;2023-07-24T03:21:42;6.83;;;4.33;;
19347;SDS011;9810;52.480;9.806;2023-07-24T03:24:09;5.60;;;4.53;;
19347;SDS011;9810;52.480;9.806;2023-07-24T03:26:38;4.80;;;3.97;;
19347;SDS011;9810;52.480;9.806;2023-07-24T03:29:05;4.90;;;4.40;;
19347;SDS011;9810;52.480;9.806;2023-07-24T03:31:32;4.87;;;4.17;;
19347;SDS011;9810;52.480;9.806;2023-07-24T03:33:59;6.57;;;4.07;;
19347;SDS011;9810;52.480;9.806;2023-07-24T03:36:27;4.50;;;4.10;;
19347;SDS011;9810;52.480;9.806;2023-07-24T03:38:54;5.80;;;4.40;;
19347;SDS011;9810;52.480;9.806;2023-07-24T03:41:21;4.43;;;4.03;;
19347;SDS011;9810;52.480;9.806;2023-07-24T03:43:50;7.87;;;4.37;;
19347;SDS011;9810;52.480;9.806;2023-07-24T03:46:17;6.03;;;4.80;;
19347;SDS011;9810;52.480;9.806;2023-07-24T03:48:44;6.17;;;4.67;;
19347;SDS011;9810;52.480;9.806;2023-07-24T03:51:13;4.73;;;4.00;;
19347;SDS011;9810;52.480;9.806;2023-07-24T03:53:40;4.63;;;4.13;;
19347;SDS011;9810;52.480;9.806;2023-07-24T03:56:07;5.13;;;3.83;;
19347;SDS011;9810;52.480;9.806;2023-07-24T03:58:35;4.20;;;3.80;;
19347;SDS011;9810;52.480;9.806;2023-07-24T04:01:03;5.10;;;3.40;;
19347;SDS011;9810;52.480;9.806;2023-07-24T04:03:31;4.23;;;3.83;;
19347;SDS011;9810;52.480;9.806;2023-07-24T04:05:58;3.83;;;3.20;;
19347;SDS011;9810;52.480;9.806;2023-07-24T04:08:26;5.40;;;3.30;;
19347;SDS011;9810;52.480;9.806;2023-07-24T04:10:53;4.43;;;3.47;;
19347;SDS011;9810;52.480;9.806;2023-07-24T04:13:21;9.77;;;2.90;;
19347;SDS011;9810;52.480;9.806;2023-07-24T04:15:48;2.60;;;2.40;;
19347;SDS011;9810;52.480;9.806;2023-07-24T04:18:17;3.22;;;2.92;;
19347;SDS011;9810;52.480;9.806;2023-07-24T04:20:44;3.08;;;2.50;;
19347;SDS011;9810;52.480;9.806;2023-07-24T04:23:12;4.43;;;2.80;;
19347;SDS011;9810;52.480;9.806;2023-07-24T04:25:39;5.57;;;2.47;;
19347;SDS011;9810;52.480;9.806;2023-07-24T04:28:06;3.35;;;2.33;;
19347;SDS011;9810;52.480;9.806;2023-07-24T04:30:33;4.38;;;2.58;;
19347;SDS011;9810;52.480;9.806;2023-07-24T04:33:01;3.75;;;2.70;;
19347;SDS011;9810;52.480;9.806;2023-07-24T04:35:30;2.83;;;2.63;;
19347;SDS011;9810;52.480;9.806;2023-07-24T04:37:57;12.50;;;3.28;;
19347;SDS011;9810;52.480;9.806;2023-07-24T04:40:24;2.38;;;2.10;;
19347;SDS011;9810;52.480;9.806;2023-07-24T04:42:51;4.07;;;2.58;;
19347;SDS011;9810;52.480;9.806;2023-07-24T04:45:19;4.00;;;2.73;;
19347;SDS011;9810;52.480;9.806;2023-07-24T04:47:46;2.10;;;1.90;;
19347;SDS011;9810;52.480;9.806;2023-07-24T04:50:13;5.13;;;2.30;;
19347;SDS011;9810;52.480;9.806;2023-07-24T04:52:42;2.92;;;2.35;;
19347;SDS011;9810;52.480;9.806;2023-07-24T04:55:09;2.65;;;2.30;;
19347;SDS011;9810;52.480;9.806;2023-07-24T04:57:36;2.03;;;1.90;;
19347;SDS011;9810;52.480;9.806;2023-07-24T05:00:04;4.20;;;2.13;;
19347;SDS011;9810;52.480;9.806;2023-07-24T05:02:32;3.25;;;1.95;;
19347;SDS011;9810;52.480;9.806;2023-07-24T05:04:59;2.15;;;1.95;;
19347;SDS011;9810;52.480;9.806;2023-07-24T05:07:26;3.55;;;2.10;;
19347;SDS011;9810;52.480;9.806;2023-07-24T05:09:55;1.90;;;1.67;;
19347;SDS011;9810;52.480;9.806;2023-07-24T05:12:22;2.88;;;2.20;;
19347;SDS011;9810;52.480;9.806;2023-07-24T05:14:50;1.67;;;1.58;;
19347;SDS011;9810;52.480;9.806;2023-07-24T05:17:17;2.22;;;1.63;;
19347;SDS011;9810;52.480;9.806;2023-07-24T05:19:44;2.20;;;1.97;;
19347;SDS011;9810;52.480;9.806;2023-07-24T05:22:12;1.83;;;1.65;;
19347;SDS011;9810;52.480;9.806;2023-07-24T05:24:39;2.85;;;1.95;;
19347;SDS011;9810;52.480;9.806;2023-07-24T05:27:08;4.20;;;1.90;;
19347;SDS011;9810;52.480;9.806;2023-07-24T05:29:35;1.90;;;1.77;;
19347;SDS011;9810;52.480;9.806;2023-07-24T05:32:02;3.20;;;1.70;;
19347;SDS011;9810;52.480;9.806;2023-07-24T05:34:30;3.97;;;1.90;;
19347;SDS011;9810;52.480;9.806;2023-07-24T05:36:57;2.07;;;1.70;;
19347;SDS011;9810;52.480;9.806;2023-07-24T05:39:24;3.03;;;1.30;;
19347;SDS011;9810;52.480;9.806;2023-07-24T05:41:52;1.88;;;1.65;;
19347;SDS011;9810;52.480;9.806;2023-07-24T05:44:21;4.00;;;2.20;;
19347;SDS011;9810;52.480;9.806;2023-07-24T05:46:48;2.63;;;2.13;;
19347;SDS011;9810;52.480;9.806;2023-07-24T05:49:15;2.30;;;1.30;;
19347;SDS011;9810;52.480;9.806;2023-07-24T05:51:42;2.43;;;1.50;;
19347;SDS011;9810;52.480;9.806;2023-07-24T05:54:09;3.73;;;1.83;;
19347;SDS011;9810;52.480;9.806;2023-07-24T05:56:37;1.73;;;1.63;;
19347;SDS011;9810;52.480;9.806;2023-07-24T05:59:04;3.10;;;1.70;;
19347;SDS011;9810;52.480;9.806;2023-07-24T06:01:33;2.40;;;1.63;;
19347;SDS011;9810;52.480;9.806;2023-07-24T06:04:00;7.97;;;1.77;;
19347;SDS011;9810;52.480;9.806;2023-07-24T06:06:27;3.13;;;2.37;;
19347;SDS011;9810;52.480;9.806;2023-07-24T06:08:54;2.93;;;1.70;;
19347;SDS011;9810;52.480;9.806;2023-07-24T06:11:21;2.13;;;1.60;;
19347;SDS011;9810;52.480;9.806;2023-07-24T06:13:51;2.47;;;1.57;;
19347;SDS011;9810;52.480;9.806;2023-07-24T06:16:18;2.60;;;1.70;;
19347;SDS011;9810;52.480;9.806;2023-07-24T06:18:47;3.30;;;1.50;;
19347;SDS011;9810;52.480;9.806;2023-07-24T06:21:14;3.13;;;2.00;;
19347;SDS011;9810;52.480;9.806;2023-07-24T06:23:41;1.90;;;1.40;;
19347;SDS011;9810;52.480;9.806;2023-07-24T06:26:09;1.40;;;1.30;;
19347;SDS011;9810;52.480;9.806;2023-07-24T06:28:36;2.47;;;1.77;;
19347;SDS011;9810;52.480;9.806;2023-07-24T06:31:03;2.17;;;1.60;;
19347;SDS011;9810;52.480;9.806;2023-07-24T06:33:31;5.20;;;1.73;;
19347;SDS011;9810;52.480;9.806;2023-07-24T06:35:59;5.30;;;1.53;;
19347;SDS011;9810;52.480;9.806;2023-07-24T06:38:27;2.40;;;1.83;;
19347;SDS011;9810;52.480;9.806;2023-07-24T06:40:54;2.23;;;1.53;;
19347;SDS011;9810;52.480;9.806;2023-07-24T06:43:21;2.00;;;1.70;;
19347;SDS011;9810;52.480;9.806;2023-07-24T06:45:48;3.40;;;2.10;;
19347;SDS011;9810;52.480;9.806;2023-07-24T06:48:16;5.17;;;1.70;;
19347;SDS011;9810;52.480;9.806;2023-07-24T06:50:43;5.77;;;1.70;;
19347;SDS011;9810;52.480;9.806;2023-07-24T06:53:12;2.37;;;1.97;;
19347;SDS011;9810;52.480;9.806;2023-07-24T06:55:39;3.90;;;1.70;;
19347;SDS011;9810;52.480;9.806;2023-07-24T06:58:08;2.33;;;1.60;;
19347;SDS011;9810;52.480;9.806;2023-07-24T07:00:35;2.53;;;1.90;;
19347;SDS011;9810;52.480;9.806;2023-07-24T07:03:03;2.33;;;1.70;;
19347;SDS011;9810;52.480;9.806;2023-07-24T07:05:31;5.07;;;2.20;;
19347;SDS011;9810;52.480;9.806;2023-07-24T07:07:58;3.07;;;2.17;;
19347;SDS011;9810;52.480;9.806;2023-07-24T07:10:28;4.13;;;2.03;;
19347;SDS011;9810;52.480;9.806;2023-07-24T07:12:57;3.77;;;1.67;;
19347;SDS011;9810;52.480;9.806;2023-07-24T07:15:24;4.43;;;2.50;;
19347;SDS011;9810;52.480;9.806;2023-07-24T07:17:51;8.67;;;3.27;;
19347;SDS011;9810;52.480;9.806;2023-07-24T07:20:19;6.63;;;2.90;;
19347;SDS011;9810;52.480;9.806;2023-07-24T07:22:46;4.30;;;2.50;;
19347;SDS011;9810;52.480;9.806;2023-07-24T07:25:15;4.50;;;2.50;;
19347;SDS011;9810;52.480;9.806;2023-07-24T07:27:43;6.83;;;2.90;;
19347;SDS011;9810;52.480;9.806;2023-07-24T07:30:11;7.43;;;2.80;;
19347;SDS011;9810;52.480;9.806;2023-07-24T07:32:38;4.40;;;2.17;;
19347;SDS011;9810;52.480;9.806;2023-07-24T07:35:06;3.93;;;2.63;;
19347;SDS011;9810;52.480;9.806;2023-07-24T07:37:34;6.13;;;2.43;;
19347;SDS011;9810;52.480;9.806;2023-07-24T07:40:01;3.10;;;1.70;;
19347;SDS011;9810;52.480;9.806;2023-07-24T07:42:29;3.07;;;2.10;;
19347;SDS011;9810;52.480;9.806;2023-07-24T07:44:58;4.10;;;2.13;;
19347;SDS011;9810;52.480;9.806;2023-07-24T07:47:25;3.40;;;2.00;;
19347;SDS011;9810;52.480;9.806;2023-07-24T07:49:52;3.27;;;2.00;;
19347;SDS011;9810;52.480;9.806;2023-07-24T07:52:19;5.60;;;2.13;;
19347;SDS011;9810;52.480;9.806;2023-07-24T07:54:47;3.83;;;2.40;;
19347;SDS011;9810;52.480;9.806;2023-07-24T07:57:15;2.80;;;1.80;;
19347;SDS011;9810;52.480;9.806;2023-07-24T07:59:42;4.37;;;2.07;;
19347;SDS011;9810;52.480;9.806;2023-07-24T08:02:11;2.27;;;1.90;;
19347;SDS011;9810;52.480;9.806;2023-07-24T08:04:38;5.07;;;2.40;;
19347;SDS011;9810;52.480;9.806;2023-07-24T08:07:05;4.03;;;2.50;;
19347;SDS011;9810;52.480;9.806;2023-07-24T08:09:33;3.37;;;2.00;;
19347;SDS011;9810;52.480;9.806;2023-07-24T08:12:01;4.00;;;1.80;;
19347;SDS011;9810;52.480;9.806;2023-07-24T08:14:28;2.73;;;2.00;;
19347;SDS011;9810;52.480;9.806;2023-07-24T08:16:55;5.13;;;1.83;;
19347;SDS011;9810;52.480;9.806;2023-07-24T08:19:24;2.43;;;2.17;;
19347;SDS011;9810;52.480;9.806;2023-07-24T08:21:54;4.73;;;2.77;;
19347;SDS011;9810;52.480;9.806;2023-07-24T08:24:21;2.97;;;2.07;;
19347;SDS011;9810;52.480;9.806;2023-07-24T08:26:49;3.10;;;2.07;;
19347;SDS011;9810;52.480;9.806;2023-07-24T08:29:16;4.47;;;2.23;;
19347;SDS011;9810;52.480;9.806;2023-07-24T08:31:43;3.97;;;1.80;;
19347;SDS011;9810;52.480;9.806;2023-07-24T08:34:10;3.40;;;1.80;;
19347;SDS011;9810;52.480;9.806;2023-07-24T08:36:39;5.30;;;1.83;;
19347;SDS011;9810;52.480;9.806;2023-07-24T08:39:06;3.87;;;1.73;;
19347;SDS011;9810;52.480;9.806;2023-07-24T08:41:33;4.33;;;2.20;;
19347;SDS011;9810;52.480;9.806;2023-07-24T08:44:02;2.70;;;1.90;;
19347;SDS011;9810;52.480;9.806;2023-07-24T08:46:31;3.27;;;1.70;;
19347;SDS011;9810;52.480;9.806;2023-07-24T08:49:02;6.43;;;1.90;;
19347;SDS011;9810;52.480;9.806;2023-07-24T08:51:30;2.00;;;1.77;;
19347;SDS011;9810;52.480;9.806;2023-07-24T08:54:00;3.28;;;2.40;;
19347;SDS011;9810;52.480;9.806;2023-07-24T08:56:29;2.07;;;1.87;;
19347;SDS011;9810;52.480;9.806;2023-07-24T08:58:56;4.13;;;2.43;;
19347;SDS011;9810;52.480;9.806;2023-07-24T09:01:23;3.17;;;2.20;;
19347;SDS011;9810;52.480;9.806;2023-07-24T09:03:51;4.67;;;2.70;;
19347;SDS011;9810;52.480;9.806;2023-07-24T09:06:18;3.13;;;2.80;;
19347;SDS011;9810;52.480;9.806;2023-07-24T09:08:46;5.13;;;3.17;;
19347;SDS011;9810;52.480;9.806;2023-07-24T09:11:15;4.83;;;3.20;;
19347;SDS011;9810;52.480;9.806;2023-07-24T09:13:42;5.77;;;2.87;;
19347;SDS011;9810;52.480;9.806;2023-07-24T09:16:20;3.80;;;2.50;;
19347;SDS011;9810;52.480;9.806;2023-07-24T09:18:48;2.92;;;2.60;;
19347;SDS011;9810;52.480;9.806;2023-07-24T09:21:26;3.30;;;3.00;;
19347;SDS011;9810;52.480;9.806;2023-07-24T09:23:54;5.38;;;3.70;;
19347;SDS011;9810;52.480;9.806;2023-07-24T09:26:22;5.03;;;2.83;;
19347;SDS011;9810;52.480;9.806;2023-07-24T09:28:53;3.40;;;3.10;;
19347;SDS011;9810;52.480;9.806;2023-07-24T09:31:20;4.85;;;2.85;;
19347;SDS011;9810;52.480;9.806;2023-07-24T09:33:48;6.40;;;3.20;;
19347;SDS011;9810;52.480;9.806;2023-07-24T09:36:15;4.55;;;3.53;;
19347;SDS011;9810;52.480;9.806;2023-07-24T09:38:42;5.18;;;3.85;;
19347;SDS011;9810;52.480;9.806;2023-07-24T09:41:11;5.70;;;3.35;;
19347;SDS011;9810;52.480;9.806;2023-07-24T09:43:41;11.25;;;3.17;;
19347;SDS011;9810;52.480;9.806;2023-07-24T09:46:09;3.28;;;2.97;;
19347;SDS011;9810;52.480;9.806;2023-07-24T09:48:36;3.60;;;3.30;;
19347;SDS011;9810;52.480;9.806;2023-07-24T09:51:03;5.25;;;3.58;;
19347;SDS011;9810;52.480;9.806;2023-07-24T09:53:31;3.10;;;2.85;;
19347;SDS011;9810;52.480;9.806;2023-07-24T09:56:01;5.35;;;3.80;;
19347;SDS011;9810;52.480;9.806;2023-07-24T09:58:31;6.00;;;4.35;;
19347;SDS011;9810;52.480;9.806;2023-07-24T10:01:01;4.35;;;3.42;;
19347;SDS011;9810;52.480;9.806;2023-07-24T10:03:30;4.00;;;3.70;;
19347;SDS011;9810;52.480;9.806;2023-07-24T10:05:59;4.55;;;4.15;;
19347;SDS011;9810;52.480;9.806;2023-07-24T10:08:27;4.93;;;4.43;;
19347;SDS011;9810;52.480;9.806;2023-07-24T10:10:54;5.03;;;4.10;;
19347;SDS011;9810;52.480;9.806;2023-07-24T10:13:22;4.35;;;3.45;;
19347;SDS011;9810;52.480;9.806;2023-07-24T10:15:49;4.85;;;4.03;;
19347;SDS011;9810;52.480;9.806;2023-07-24T10:18:25;5.43;;;3.80;;
19347;SDS011;9810;52.480;9.806;2023-07-24T10:20:59;4.35;;;3.95;;
19347;SDS011;9810;52.480;9.806;2023-07-24T10:23:27;3.75;;;3.45;;
19347;SDS011;9810;52.480;9.806;2023-07-24T10:25:55;4.60;;;3.92;;
19347;SDS011;9810;52.480;9.806;2023-07-24T10:28:29;6.13;;;3.60;;
19347;SDS011;9810;52.480;9.806;2023-07-24T10:30:57;11.77;;;5.47;;
19347;SDS011;9810;52.480;9.806;2023-07-24T10:33:29;7.15;;;4.22;;
19347;SDS011;9810;52.480;9.806;2023-07-24T10:36:03;44.67;;;10.40;;
19347;SDS011;9810;52.480;9.806;2023-07-24T10:38:34;12.32;;;5.07;;
19347;SDS011;9810;52.480;9.806;2023-07-24T10:41:03;20.05;;;6.88;;
19347;SDS011;9810;52.480;9.806;2023-07-24T10:43:39;13.38;;;7.18;;
19347;SDS011;9810;52.480;9.806;2023-07-24T10:46:08;9.27;;;4.25;;
19347;SDS011;9810;52.480;9.806;2023-07-24T10:48:37;7.97;;;5.43;;
19347;SDS011;9810;52.480;9.806;2023-07-24T10:51:08;8.85;;;4.85;;
19347;SDS011;9810;52.480;9.806;2023-07-24T10:53:40;6.70;;;4.22;;
19347;SDS011;9810;52.480;9.806;2023-07-24T10:56:09;6.03;;;4.65;;
19347;SDS011;9810;52.480;9.806;2023-07-24T10:58:36;11.55;;;4.05;;
19347;SDS011;9810;52.480;9.806;2023-07-24T11:01:04;6.57;;;4.30;;
19347;SDS011;9810;52.480;9.806;2023-07-24T11:03:32;4.47;;;4.07;;
19347;SDS011;9810;52.480;9.806;2023-07-24T11:06:03;7.22;;;4.55;;
19347;SDS011;9810;52.480;9.806;2023-07-24T11:08:31;5.22;;;3.90;;
19347;SDS011;9810;52.480;9.806;2023-07-24T11:11:01;5.40;;;3.63;;
19347;SDS011;9810;52.480;9.806;2023-07-24T11:13:29;5.28;;;4.50;;
19347;SDS011;9810;52.480;9.806;2023-07-24T11:15:57;5.43;;;4.28;;
19347;SDS011;9810;52.480;9.806;2023-07-24T11:18:31;8.13;;;4.40;;
19347;SDS011;9810;52.480;9.806;2023-07-24T11:20:58;5.68;;;3.90;;
19347;SDS011;9810;52.480;9.806;2023-07-24T11:23:27;4.80;;;4.30;;
19347;SDS011;9810;52.480;9.806;2023-07-24T11:25:54;7.43;;;4.55;;
19347;SDS011;9810;52.480;9.806;2023-07-24T11:28:21;9.25;;;5.45;;
19347;SDS011;9810;52.480;9.806;2023-07-24T11:30:48;4.25;;;3.85;;
19347;SDS011;9810;52.480;9.806;2023-07-24T11:33:16;3.53;;;2.28;;
19347;SDS011;9810;52.480;9.806;2023-07-24T11:35:44;3.60;;;1.55;;
19347;SDS011;9810;52.480;9.806;2023-07-24T11:38:13;2.30;;;1.38;;
19347;SDS011;9810;52.480;9.806;2023-07-24T11:40:42;3.23;;;1.23;;
19347;SDS011;9810;52.480;9.806;2023-07-24T11:43:17;2.43;;;1.43;;
19347;SDS011;9810;52.480;9.806;2023-07-24T11:45:45;3.30;;;1.90;;
19347;SDS011;9810;52.480;9.806;2023-07-24T11:48:17;9.23;;;2.50;;
19347;SDS011;9810;52.480;9.806;2023-07-24T11:50:45;3.27;;;2.10;;
19347;SDS011;9810;52.480;9.806;2023-07-24T11:53:20;3.07;;;2.10;;
19347;SDS011;9810;52.480;9.806;2023-07-24T11:55:50;2.13;;;1.90;;
19347;SDS011;9810;52.480;9.806;2023-07-24T11:58:19;4.20;;;2.00;;
19347;SDS011;9810;52.480;9.806;2023-07-24T12:00:47;2.67;;;2.23;;
19347;SDS011;9810;52.480;9.806;2023-07-24T12:03:19;7.87;;;2.30;;
19347;SDS011;9810;52.480;9.806;2023-07-24T12:05:47;2.30;;;1.93;;
19347;SDS011;9810;52.480;9.806;2023-07-24T12:08:15;4.40;;;2.00;;
19347;SDS011;9810;52.480;9.806;2023-07-24T12:10:43;2.72;;;1.95;;
19347;SDS011;9810;52.480;9.806;2023-07-24T12:13:12;2.20;;;2.00;;
19347;SDS011;9810;52.480;9.806;2023-07-24T12:15:39;4.63;;;2.53;;
19347;SDS011;9810;52.480;9.806;2023-07-24T12:18:06;4.15;;;2.33;;
19347;SDS011;9810;52.480;9.806;2023-07-24T12:20:34;2.90;;;2.55;;
19347;SDS011;9810;52.480;9.806;2023-07-24T12:23:01;2.90;;;2.70;;
19347;SDS011;9810;52.480;9.806;2023-07-24T12:25:29;3.22;;;2.92;;
19347;SDS011;9810;52.480;9.806;2023-07-24T12:27:57;5.20;;;3.60;;
19347;SDS011;9810;52.480;9.806;2023-07-24T12:30:26;4.32;;;3.65;;
19347;SDS011;9810;52.480;9.806;2023-07-24T12:32:53;5.43;;;3.28;;
19347;SDS011;9810;52.480;9.806;2023-07-24T12:35:21;4.18;;;3.65;;
19347;SDS011;9810;52.480;9.806;2023-07-24T12:37:48;4.93;;;3.67;;
19347;SDS011;9810;52.480;9.806;2023-07-24T12:40:15;5.07;;;3.83;;
19347;SDS011;9810;52.480;9.806;2023-07-24T12:42:42;5.03;;;4.15;;
19347;SDS011;9810;52.480;9.806;2023-07-24T12:45:10;5.30;;;3.85;;
19347;SDS011;9810;52.480;9.806;2023-07-24T12:47:38;5.10;;;3.65;;
19347;SDS011;9810;52.480;9.806;2023-07-24T12:50:06;4.37;;;3.33;;
19347;SDS011;9810;52.480;9.806;2023-07-24T12:52:33;3.87;;;2.97;;
19347;SDS011;9810;52.480;9.806;2023-07-24T12:55:00;4.53;;;3.20;;
19347;SDS011;9810;52.480;9.806;2023-07-24T12:57:27;4.23;;;2.93;;
19347;SDS011;9810;52.480;9.806;2023-07-24T12:59:55;5.27;;;3.00;;
19347;SDS011;9810;52.480;9.806;2023-07-24T13:02:22;4.77;;;3.40;;
19347;SDS011;9810;52.480;9.806;2023-07-24T13:04:50;4.43;;;2.97;;
19347;SDS011;9810;52.480;9.806;2023-07-24T13:07:18;4.15;;;2.97;;
19347;SDS011;9810;52.480;9.806;2023-07-24T13:09:46;3.55;;;2.88;;
19347;SDS011;9810;52.480;9.806;2023-07-24T13:12:13;3.45;;;3.08;;
19347;SDS011;9810;52.480;9.806;2023-07-24T13:14:40;4.28;;;3.10;;
19347;SDS011;9810;52.480;9.806;2023-07-24T13:17:07;4.80;;;3.50;;
19347;SDS011;9810;52.480;9.806;2023-07-24T13:19:35;3.55;;;2.97;;
19347;SDS011;9810;52.480;9.806;2023-07-24T13:22:04;4.97;;;3.10;;
19347;SDS011;9810;52.480;9.806;2023-07-24T13:24:32;3.53;;;2.72;;
19347;SDS011;9810;52.480;9.806;2023-07-24T13:26:59;2.75;;;2.40;;
19347;SDS011;9810;52.480;9.806;2023-07-24T13:29:26;3.22;;;2.55;;
19347;SDS011;9810;52.480;9.806;2023-07-24T13:31:53;2.40;;;2.20;;
19347;SDS011;9810;52.480;9.806;2023-07-24T13:34:21;2.40;;;2.17;;
19347;SDS011;9810;52.480;9.806;2023-07-24T13:36:50;2.72;;;2.45;;
19347;SDS011;9810;52.480;9.806;2023-07-24T13:39:19;2.47;;;2.28;;
19347;SDS011;9810;52.480;9.806;2023-07-24T13:41:46;2.38;;;2.17;;
19347;SDS011;9810;52.480;9.806;2023-07-24T13:44:14;6.22;;;2.72;;
19347;SDS011;9810;52.480;9.806;2023-07-24T13:46:41;3.50;;;2.47;;
19347;SDS011;9810;52.480;9.806;2023-07-24T13:49:08;2.72;;;2.00;;
19347;SDS011;9810;52.480;9.806;2023-07-24T13:51:35;4.93;;;2.40;;
19347;SDS011;9810;52.480;9.806;2023-07-24T13:54:02;2.60;;;2.00;;
19347;SDS011;9810;52.480;9.806;2023-07-24T13:56:31;2.00;;;1.90;;
19347;SDS011;9810;52.480;9.806;2023-07-24T13:59:00;2.65;;;2.42;;
19347;SDS011;9810;52.480;9.806;2023-07-24T14:01:28;1.77;;;1.67;;
19347;SDS011;9810;52.480;9.806;2023-07-24T14:03:55;3.13;;;2.67;;
19347;SDS011;9810;52.480;9.806;2023-07-24T14:06:22;2.87;;;1.63;;
19347;SDS011;9810;52.480;9.806;2023-07-24T14:08:49;2.88;;;1.58;;
19347;SDS011;9810;52.480;9.806;2023-07-24T14:11:16;2.87;;;2.23;;
19347;SDS011;9810;52.480;9.806;2023-07-24T14:13:45;2.10;;;1.90;;
19347;SDS011;9810;52.480;9.806;2023-07-24T14:16:13;2.73;;;2.03;;
19347;SDS011;9810;52.480;9.806;2023-07-24T14:18:40;15.87;;;2.60;;
19347;SDS011;9810;52.480;9.806;2023-07-24T14:21:07;4.00;;;2.20;;
19347;SDS011;9810;52.480;9.806;2023-07-24T14:23:35;3.53;;;2.07;;
19347;SDS011;9810;52.480;9.806;2023-07-24T14:26:02;6.60;;;2.60;;
19347;SDS011;9810;52.480;9.806;2023-07-24T14:28:29;3.07;;;2.77;;
19347;SDS011;9810;52.480;9.806;2023-07-24T14:30:59;4.17;;;3.17;;
19347;SDS011;9810;52.480;9.806;2023-07-24T14:33:26;2.93;;;2.60;;
19347;SDS011;9810;52.480;9.806;2023-07-24T14:35:53;3.43;;;3.13;;
19347;SDS011;9810;52.480;9.806;2023-07-24T14:38:21;4.22;;;3.28;;
19347;SDS011;9810;52.480;9.806;2023-07-24T14:40:48;3.30;;;3.00;;
19347;SDS011;9810;52.480;9.806;2023-07-24T14:43:15;3.00;;;2.63;;
19347;SDS011;9810;52.480;9.806;2023-07-24T14:45:43;3.40;;;2.50;;
19347;SDS011;9810;52.480;9.806;2023-07-24T14:48:12;3.63;;;2.97;;
19347;SDS011;9810;52.480;9.806;2023-07-24T14:50:41;3.30;;;2.90;;
19347;SDS011;9810;52.480;9.806;2023-07-24T14:53:09;4.93;;;2.60;;
19347;SDS011;9810;52.480;9.806;2023-07-24T14:55:36;4.87;;;2.87;;
19347;SDS011;9810;52.480;9.806;2023-07-24T14:58:03;2.27;;;2.00;;
19347;SDS011;9810;52.480;9.806;2023-07-24T15:00:31;2.57;;;1.97;;
19347;SDS011;9810;52.480;9.806;2023-07-24T15:02:59;2.43;;;2.20;;
19347;SDS011;9810;52.480;9.806;2023-07-24T15:05:27;5.27;;;2.63;;